Time;durP1;ratioP1;P1;durP2;ratioP2;P2;SDS_P1;SDS_P2;PMS_P1;PMS_P2;Temp;Humidity;BMP_temperature;BMP_pressure;BME280_temperature;BME280_humidity;BME280_pressure;Samples;Min_cycle;Max_cycle;Signal;HPM_P1;HPM_P2
2022/10/16 00:50:32;;;;;;;22.73;18.00;;;;;;;13.67;76.20;100645.52;3587597;77;20991;-75
2022/10/16 00:55:24;;;;;;;24.35;18.62;;;;;;;13.64;76.49;100655.95;3529394;77;20933;-74
2022/10/16 01:00:20;;;;;;;21.87;19.48;;;;;;;13.63;76.30;100660.76;3499852;78;21072;-75
2022/10/16 01:05:12;;;;;;;24.70;19.90;;;;;;;13.64;76.23;100667.71;3521588;78;21501;-75
2022/10/16 01:10:37;;;;;;;21.68;18.57;;;;;;;13.66;76.14;100676.86;3533407;78;20978;-76
2022/10/16 01:15:55;;;;;;;25.48;19.07;;;;;;;13.66;75.96;100671.64;3538644;78;21453;-75
2022/10/16 01:21:15;;;;;;;26.52;19.82;;;;;;;13.67;76.26;100689.94;3518865;78;20992;-75
2022/10/16 01:26:16;;;;;;;26.68;20.70;;;;;;;13.64;76.14;100692.53;3584845;78;21035;-75
2022/10/16 01:31:11;;;;;;;26.30;20.35;;;;;;;13.61;76.60;100689.93;3572632;78;21456;-75
2022/10/16 01:36:17;;;;;;;26.70;19.27;;;;;;;13.53;76.90;100682.48;3541092;79;21006;-76
2022/10/16 01:41:24;;;;;;;31.75;22.45;;;;;;;13.47;77.14;100686.39;3549685;78;20964;-75
2022/10/16 01:46:19;;;;;;;24.27;20.80;;;;;;;13.42;77.45;100695.48;3543603;78;21544;-75
2022/10/16 01:51:16;;;;;;;27.85;22.73;;;;;;;13.37;77.78;100695.89;3570005;77;20979;-75
2022/10/16 01:56:10;;;;;;;;;;;;;;;13.31;78.00;100701.97;3569247;77;21311;-75
2022/10/16 02:01:07;;;;;;;27.20;21.82;;;;;;;13.29;78.54;100699.75;3514733;78;20109;-75
2022/10/16 02:06:01;;;;;;;24.75;22.13;;;;;;;13.24;78.76;100698.84;3514323;78;20959;-75
2022/10/16 02:10:57;;;;;;;24.18;21.55;;;;;;;13.21;79.03;100691.42;3519194;78;20896;-75
2022/10/16 02:15:49;;;;;;;24.98;22.27;;;;;;;13.17;79.16;100686.62;3504266;78;21176;-75
2022/10/16 02:20:55;;;;;;;25.62;21.42;;;;;;;13.14;79.28;100694.42;3520394;78;20943;-75
2022/10/16 02:25:52;;;;;;;24.98;20.40;;;;;;;13.10;79.30;100688.31;3539218;78;21031;-75
2022/10/16 02:31:01;;;;;;;25.88;21.17;;;;;;;13.08;79.59;100693.09;3486076;78;21261;-75
2022/10/16 02:35:57;;;;;;;23.07;20.60;;;;;;;13.05;79.69;100695.23;3507196;78;20968;-75
2022/10/16 02:40:48;;;;;;;24.87;22.02;;;;;;;13.05;79.84;100690.02;3544107;78;21139;-75
2022/10/16 02:45:40;;;;;;;27.52;23.50;;;;;;;13.03;79.97;100690.88;3545819;78;21485;-75
2022/10/16 02:50:32;;;;;;;25.97;21.02;;;;;;;13.01;80.13;100696.09;3465289;77;21459;-75
2022/10/16 02:55:27;;;;;;;24.40;21.75;;;;;;;12.99;80.19;100696.95;3527369;78;20995;-75
2022/10/16 03:00:21;;;;;;;23.00;20.55;;;;;;;12.95;80.29;100693.02;3518725;78;20974;-75
2022/10/16 03:05:15;;;;;;;21.27;18.02;;;;;;;12.92;80.34;100687.77;3563796;78;21539;-75
2022/10/16 03:10:07;;;;;;;24.75;19.75;;;;;;;12.90;80.20;100695.16;3508613;78;20962;-75
2022/10/16 03:14:59;;;;;;;24.02;21.45;;;;;;;12.89;80.04;100699.47;3539732;78;20967;-75
2022/10/16 03:19:50;;;;;;;22.95;20.40;;;;;;;12.88;80.07;100706.88;3516927;78;20935;-75
2022/10/16 03:24:41;;;;;;;23.18;20.27;;;;;;;12.89;79.85;100713.83;3477728;78;20994;-75
2022/10/16 03:29:34;;;;;;;23.55;19.77;;;;;;;12.92;79.92;100719.08;3521537;77;21624;-75
2022/10/16 03:34:28;;;;;;;25.43;21.48;;;;;;;12.95;79.90;100720.41;3567637;77;20951;-75
2022/10/16 03:39:19;;;;;;;20.45;18.10;;;;;;;12.95;79.87;100724.77;3499927;77;21520;-75
2022/10/16 03:44:11;;;;;;;24.80;19.65;;;;;;;12.94;79.87;100730.39;3542672;79;21906;-75
2022/10/16 03:49:04;;;;;;;22.75;19.25;;;;;;;12.95;79.74;100736.07;3518468;78;21433;-75
2022/10/16 03:53:55;;;;;;;25.17;19.60;;;;;;;12.95;79.69;100738.69;3503347;77;21796;-76
2022/10/16 03:58:47;;;;;;;20.50;17.92;;;;;;;12.96;79.62;100740.41;3524556;78;20932;-75
2022/10/16 04:03:41;;;;;;;21.07;18.48;;;;;;;12.96;79.72;100740.85;3520324;78;21614;-75
2022/10/16 04:08:34;;;;;;;21.45;18.32;;;;;;;12.93;79.58;100735.19;3462397;78;21002;-75
2022/10/16 04:13:29;;;;;;;25.85;18.27;;;;;;;12.91;79.73;100736.92;3531843;79;20908;-75
2022/10/16 04:18:22;;;;;;;21.00;17.40;;;;;;;12.90;79.62;100740.38;3542718;78;21128;-75
2022/10/16 04:23:13;;;;;;;21.85;17.52;;;;;;;12.90;79.69;100741.69;3472866;77;20973;-76
2022/10/16 04:28:04;;;;;;;21.80;17.48;;;;;;;12.92;79.57;100737.34;3506420;78;20955;-75
2022/10/16 04:32:56;;;;;;;21.75;16.73;;;;;;;12.92;79.41;100733.87;3509635;78;22197;-75
2022/10/16 04:37:50;;;;;;;20.48;17.40;;;;;;;12.92;79.50;100738.65;3531279;78;21027;-75
2022/10/16 04:42:42;;;;;;;23.52;17.95;;;;;;;12.89;79.31;100745.58;3551728;78;21758;-75
2022/10/16 04:47:35;;;;;;;22.02;18.87;;;;;;;12.83;79.56;100759.45;3515808;78;20952;-75
2022/10/16 04:52:28;;;;;;;19.37;17.30;;;;;;;12.74;79.38;100753.72;3526003;78;21120;-75
2022/10/16 04:57:19;;;;;;;21.27;17.12;;;;;;;12.67;79.42;100751.92;3493233;77;20983;-76
2022/10/16 05:02:10;;;;;;;23.18;18.15;;;;;;;12.55;79.42;100754.41;3541334;78;21252;-75
2022/10/16 05:07:01;;;;;;;22.48;18.98;;;;;;;12.47;79.60;100768.69;3529514;78;20995;-75
2022/10/16 05:11:57;;;;;;;22.27;17.20;;;;;;;12.46;79.70;100776.06;3549755;78;20971;-75
2022/10/16 05:16:48;;;;;;;20.37;18.32;;;;;;;12.47;79.74;100771.30;3525253;77;22065;-75
2022/10/16 05:21:40;;;;;;;19.92;17.07;;;;;;;12.46;79.65;100776.50;3508229;78;20953;-75
2022/10/16 05:26:33;;;;;;;20.45;16.60;;;;;;;12.43;79.74;100777.35;3469294;77;20988;-75
2022/10/16 05:31:24;;;;;;;21.12;18.73;;;;;;;12.39;79.73;100785.58;3496110;78;21992;-75
2022/10/16 05:36:23;;;;;;;23.62;18.20;;;;;;;12.46;79.84;100787.79;3510548;78;21001;-75
2022/10/16 05:41:10;;;;;;;20.00;16.50;;;;;;;12.55;79.95;100797.01;3508061;78;20949;-75
2022/10/16 05:46:07;;;;;;;19.25;16.97;;;;;;;12.68;80.04;100801.05;3555180;77;21119;-76
2022/10/16 05:51:08;;;;;;;20.45;16.77;;;;;;;12.83;79.54;100807.73;3515457;78;20983;-74
2022/10/16 05:56:04;;;;;;;18.92;16.40;;;;;;;12.96;79.61;100802.18;3528063;78;23777;-75
2022/10/16 06:01:00;;;;;;;19.37;16.15;;;;;;;13.02;79.42;100802.66;3485983;78;20958;-75
2022/10/16 06:06:02;;;;;;;20.53;17.57;;;;;;;13.01;79.02;100797.02;3552583;78;21109;-75
2022/10/16 06:11:06;;;;;;;21.68;15.55;;;;;;;12.92;79.02;100812.16;3505793;78;21634;-75
2022/10/16 06:16:04;;;;;;;18.73;15.90;;;;;;;12.87;79.20;100821.23;3500335;78;21005;-75
2022/10/16 06:21:00;;;;;;;18.45;16.07;;;;;;;12.82;79.25;100833.36;3542484;78;20940;-75
2022/10/16 06:26:12;;;;;;;;;;;;;;;12.79;79.23;100838.57;3430983;81;21563;-75
2022/10/16 06:31:12;;;;;;;18.75;15.28;;;;;;;12.77;79.16;100833.77;3532929;78;20568;-75
2022/10/16 06:36:08;;;;;;;18.42;15.72;;;;;;;12.79;79.18;100835.97;3534773;78;22101;-75
2022/10/16 06:41:01;;;;;;;18.60;16.25;;;;;;;12.98;78.98;100839.59;3509279;78;20976;-75
2022/10/16 06:45:55;;;;;;;17.30;14.83;;;;;;;13.01;78.90;100845.30;3524128;79;21229;-74
2022/10/16 06:51:08;;;;;;;19.32;16.57;;;;;;;13.05;78.83;100848.37;3474229;78;20952;-75
2022/10/16 06:56:17;;;;;;;20.57;16.45;;;;;;;13.14;78.70;100853.66;3494424;78;21433;-75
2022/10/16 07:01:10;;;;;;;18.25;15.68;;;;;;;13.22;78.46;100854.62;3503063;78;21011;-77
2022/10/16 07:06:08;;;;;;;18.35;16.05;;;;;;;13.32;78.35;100855.59;3510924;78;20985;-75
2022/10/16 07:11:11;;;;;;;22.62;16.12;;;;;;;13.39;78.16;100858.69;3527319;78;21317;-77
2022/10/16 07:16:23;;;;;;;16.40;14.58;;;;;;;13.56;77.80;100864.45;3537347;78;20999;-76
2022/10/16 07:21:26;;;;;;;25.95;15.80;;;;;;;14.06;77.10;100870.02;3492866;78;21019;-76
2022/10/16 07:26:30;;;;;;;17.52;15.05;;;;;;;14.40;76.59;100868.86;3479962;78;21493;-76
2022/10/16 07:31:42;;;;;;;17.10;14.70;;;;;;;14.69;76.18;100882.50;3349562;82;21175;-76
2022/10/16 07:36:45;;;;;;;15.88;14.18;;;;;;;14.75;76.09;100886.42;3336078;82;21564;-77
2022/10/16 07:41:40;;;;;;;18.02;13.93;;;;;;;14.76;75.65;100890.80;3323376;83;21119;-77
2022/10/16 07:46:33;;;;;;;16.02;14.33;;;;;;;14.80;75.42;100891.23;3320307;82;20975;-76
2022/10/16 07:51:26;;;;;;;15.10;13.53;;;;;;;14.93;75.52;100879.48;3351937;83;20991;-76
2022/10/16 07:56:18;;;;;;;14.35;12.80;;;;;;;15.30;74.70;100884.32;3367334;83;21001;-75
2022/10/16 08:01:13;;;;;;;14.58;13.08;;;;;;;15.84;73.85;100859.39;3316304;83;21611;-75
2022/10/16 08:06:15;;;;;;;13.35;12.05;;;;;;;16.37;72.97;100846.53;3320766;83;21056;-76
2022/10/16 08:11:06;;;;;;;14.10;12.80;;;;;;;17.02;71.08;100847.92;3344530;83;22679;-76
2022/10/16 08:15:58;;;;;;;14.07;12.65;;;;;;;17.33;70.93;100869.12;3308802;82;21098;-76
2022/10/16 08:20:59;;;;;;;13.28;12.03;;;;;;;17.50;70.55;100875.53;3282671;82;21532;-77
2022/10/16 08:25:51;;;;;;;13.45;11.85;;;;;;;17.51;69.74;100873.35;3412492;78;22605;-76
2022/10/16 08:30:42;;;;;;;12.90;11.57;;;;;;;17.43;70.07;100871.22;3440274;79;20990;-76
2022/10/16 08:35:33;;;;;;;12.23;11.00;;;;;;;17.57;69.42;100884.25;3505943;78;20997;-77
2022/10/16 08:40:31;;;;;;;15.83;12.15;;;;;;;17.83;69.02;100872.17;3520162;79;20974;-77
2022/10/16 08:46:08;;;;;;;12.33;10.72;;;;;;;18.35;68.05;100884.31;3521282;78;20977;-77
2022/10/16 08:51:25;;;;;;;12.85;11.55;;;;;;;18.63;67.33;100884.37;3504231;79;22106;-76
2022/10/16 08:56:20;;;;;;;11.63;10.43;;;;;;;18.60;67.06;100881.80;3528762;77;20910;-75
2022/10/16 09:01:16;;;;;;;13.05;10.05;;;;;;;18.49;66.84;100892.90;3523092;78;20964;-77
2022/10/16 09:06:27;;;;;;;12.80;10.82;;;;;;;18.45;67.40;100899.97;3547709;79;20940;-74
2022/10/16 09:11:52;;;;;;;11.43;10.23;;;;;;;18.50;66.83;100905.64;3558067;78;20968;-76
2022/10/16 09:16:55;;;;;;;12.05;10.88;;;;;;;18.45;67.14;100899.97;3391780;82;21871;-76
2022/10/16 09:22:00;;;;;;;11.28;10.15;;;;;;;18.48;66.95;100904.34;3408583;82;20928;-76
2022/10/16 09:27:23;;;;;;;;;;;;;;;;;;;;;
2022/10/16 09:32:32;;;;;;;11.30;10.05;;;;;;;19.44;65.67;100910.41;3380396;82;21536;-76
2022/10/16 09:37:47;;;;;;;10.43;9.30;;;;;;;20.09;65.28;100898.30;3384577;82;21022;-76
2022/10/16 09:42:41;;;;;;;14.47;10.25;;;;;;;20.94;64.38;100884.20;3423362;82;21990;-75
2022/10/16 09:53:12;;;;;;;10.13;9.20;;;;;;;21.44;61.76;100877.69;3290940;84;21078;-76
2022/10/16 09:58:20;;;;;;;12.28;9.58;;;;;;;22.00;61.41;100882.40;3281053;83;21004;-76
2022/10/16 10:03:58;;;;;;;10.58;9.53;;;;;;;22.19;60.81;100874.81;3264579;83;21101;-76
2022/10/16 10:09:09;;;;;;;9.13;8.23;;;;;;;22.15;60.76;100887.73;3144473;87;21082;-77
2022/10/16 10:14:38;;;;;;;10.43;9.43;;;;;;;21.93;60.39;100887.45;3151924;87;21077;-76
2022/10/16 10:20:25;;;;;;;11.03;9.65;;;;;;;21.58;60.34;100889.28;3168331;87;21054;-76
2022/10/16 10:31:18;;;;;;;10.28;9.23;;;;;;;21.41;60.96;100884.37;3193690;86;20995;-75
2022/10/16 10:36:28;;;;;;;11.88;9.33;;;;;;;21.43;60.16;100888.73;3246795;86;21536;-76
2022/10/16 10:41:57;;;;;;;10.72;8.68;;;;;;;21.50;60.26;100886.84;3240082;85;21053;-76
2022/10/16 10:47:34;;;;;;;10.60;9.53;;;;;;;21.47;60.48;100880.30;3184632;85;21104;-77
2022/10/16 10:52:46;;;;;;;11.35;10.23;;;;;;;21.35;60.28;100872.64;3268095;85;21054;-77
2022/10/16 10:58:10;;;;;;;10.38;9.38;;;;;;;21.24;60.13;100860.55;3270145;85;21015;-76
2022/10/16 11:03:56;;;;;;;;;;;;;;;;;;;;;
2022/10/16 11:08:59;;;;;;;10.13;9.23;;;;;;;21.07;60.39;100858.80;3406397;81;21403;-75
2022/10/16 11:14:32;;;;;;;11.10;9.38;;;;;;;21.14;60.65;100872.28;3304424;84;21077;-78
2022/10/16 11:20:05;;;;;;;9.13;8.15;;;;;;;21.25;60.84;100864.94;3317027;83;21009;-77
2022/10/16 11:25:33;;;;;;;9.28;8.43;;;;;;;21.72;59.77;100861.14;3311365;83;21040;-77
2022/10/16 11:31:28;;;;;;;;;;;;;;;;;;;;;
2022/10/16 11:36:59;;;;;;;9.48;8.48;;;;;;;21.83;58.68;100856.41;3290291;83;21105;-77
2022/10/16 11:42:37;;;;;;;9.63;8.73;;;;;;;21.62;58.98;100861.39;3286179;84;21614;-74
2022/10/16 11:48:05;;;;;;;9.68;8.68;;;;;;;21.54;59.17;100868.65;3259852;84;21107;-76
2022/10/16 11:53:23;;;;;;;8.73;7.87;;;;;;;21.62;59.05;100871.97;3366827;82;21629;-77
2022/10/16 12:04:44;;;;;;;9.83;8.58;;;;;;;21.37;59.44;100870.81;3373216;82;21280;-77
2022/10/16 12:10:00;;;;;;;;;;;;;;;;;;;;;
2022/10/16 12:15:05;;;;;;;11.57;8.75;;;;;;;21.58;59.51;100859.71;3402210;81;21029;-77
2022/10/16 12:20:35;;;;;;;10.00;8.98;;;;;;;21.68;58.86;100859.89;3441446;79;20963;-77
2022/10/16 12:25:54;;;;;;;8.40;7.55;;;;;;;21.46;58.66;100860.92;3486217;79;21034;-77
2022/10/16 12:31:18;;;;;;;8.70;7.80;;;;;;;21.44;58.39;100864.46;3472884;79;20974;-77
2022/10/16 12:36:31;;;;;;;9.80;7.97;;;;;;;21.27;58.88;100860.48;3422432;81;20904;-77
2022/10/16 12:41:39;;;;;;;9.25;7.95;;;;;;;21.24;59.43;100864.52;3318518;84;20995;-76
2022/10/16 12:46:34;;;;;;;9.68;7.65;;;;;;;21.13;59.03;100873.17;3326444;83;21034;-76
2022/10/16 12:51:29;;;;;;;;;;;;;;;20.96;59.24;100880.16;3317436;83;21186;-76
2022/10/16 12:56:34;;;;;;;9.25;7.42;;;;;;;20.88;59.25;100872.43;3320581;84;20168;-77
2022/10/16 13:02:14;;;;;;;;;;;;;;;;;;;;;
2022/10/16 13:07:24;;;;;;;8.48;7.17;;;;;;;20.78;59.66;100890.71;3343124;83;21021;-77
2022/10/16 13:13:21;;;;;;;10.60;7.47;;;;;;;20.57;59.85;100894.23;3345136;83;21000;-77
2022/10/16 13:18:31;;;;;;;9.88;8.93;;;;;;;20.32;60.29;100891.70;3447028;80;21039;-77
2022/10/16 13:24:01;;;;;;;9.38;8.10;;;;;;;19.99;60.55;100895.41;3538934;78;21014;-76
2022/10/16 13:29:13;;;;;;;9.18;7.65;;;;;;;19.75;61.13;100895.44;3523354;78;20948;-76
2022/10/16 13:34:21;;;;;;;9.03;8.03;;;;;;;19.64;61.45;100907.46;3495655;78;21023;-77
2022/10/16 13:44:50;;;;;;;8.75;7.85;;;;;;;19.51;62.10;100915.14;3554270;79;21062;-77
2022/10/16 13:49:59;;;;;;;10.03;8.38;;;;;;;19.42;61.97;100919.70;3305461;83;21116;-76
2022/10/16 14:00:45;;;;;;;10.00;8.23;;;;;;;19.38;62.46;100924.57;3075718;90;21106;-76
2022/10/16 14:06:16;;;;;;;;;;;;;;;;;;;;;
2022/10/16 14:11:19;;;;;;;13.22;8.65;;;;;;;19.19;62.51;100927.97;3065952;90;21119;-77
2022/10/16 14:16:30;;;;;;;10.48;8.25;;;;;;;19.10;63.03;100917.99;3062276;92;21623;-76
2022/10/16 14:21:32;;;;;;;12.03;8.23;;;;;;;19.04;63.38;100919.83;3063115;90;21214;-77
2022/10/16 14:26:42;;;;;;;11.08;8.83;;;;;;;19.08;63.43;100921.97;3234021;84;21026;-77
2022/10/16 14:31:40;;;;;;;11.48;8.48;;;;;;;19.07;63.57;100920.70;3491922;78;21778;-76
2022/10/16 14:37:04;;;;;;;;;;;;;;;;;;;;;
2022/10/16 14:41:53;;;;;;;10.50;9.50;;;;;;;18.97;64.12;100943.20;3330862;82;21108;-76
2022/10/16 14:46:53;;;;;;;10.13;9.13;;;;;;;18.89;64.28;100947.73;3299089;83;21124;-77
2022/10/16 14:57:14;;;;;;;11.63;9.93;;;;;;;18.78;64.72;100948.27;3265531;85;21406;-77
2022/10/16 15:02:43;;;;;;;13.28;9.23;;;;;;;18.73;65.01;100944.84;3248491;85;20987;-77
2022/10/16 15:07:32;;;;;;;10.48;9.43;;;;;;;18.66;65.43;100938.33;3274974;84;20974;-76
2022/10/16 15:12:21;;;;;;;11.65;9.93;;;;;;;18.58;65.95;100950.73;3236513;86;21493;-76
2022/10/16 15:17:16;;;;;;;14.85;9.58;;;;;;;18.48;66.24;100947.78;3256861;84;21130;-76
2022/10/16 15:22:13;;;;;;;13.75;9.48;;;;;;;18.37;66.75;100950.96;3247829;86;21270;-76
2022/10/16 15:27:06;;;;;;;12.20;10.03;;;;;;;18.24;67.05;100951.13;3269937;83;21059;-76
2022/10/16 15:31:59;;;;;;;20.02;10.43;;;;;;;18.12;67.63;100959.57;3341964;83;21045;-75
2022/10/16 15:36:50;;;;;;;15.08;10.13;;;;;;;18.01;67.85;100974.15;3394788;82;21491;-75
2022/10/16 15:41:53;;;;;;;15.90;9.90;;;;;;;17.90;68.49;100972.52;3370099;81;20979;-75
2022/10/16 15:46:40;;;;;;;11.83;9.68;;;;;;;17.79;69.03;100967.73;3400679;79;20979;-75
2022/10/16 15:51:33;;;;;;;16.65;10.93;;;;;;;17.69;69.43;100968.28;3538815;78;20965;-76
2022/10/16 15:56:32;;;;;;;15.88;11.30;;;;;;;17.62;69.87;100974.47;3494687;78;20981;-75
2022/10/16 16:01:28;;;;;;;19.25;10.72;;;;;;;17.56;70.04;100980.21;3521320;79;20958;-75
2022/10/16 16:06:26;;;;;;;12.13;10.88;;;;;;;17.47;70.32;100975.47;3523006;79;21119;-75
2022/10/16 16:11:17;;;;;;;16.60;9.68;;;;;;;17.41;70.51;100980.75;3496871;78;21341;-76
2022/10/16 16:16:14;;;;;;;13.65;10.65;;;;;;;17.35;70.77;100991.33;3527218;78;21529;-76
2022/10/16 16:21:06;;;;;;;15.63;11.25;;;;;;;17.31;71.03;101001.41;3502316;79;21199;-75
2022/10/16 16:26:25;;;;;;;;;;;;;;;;;;;;;
2022/10/16 16:31:35;;;;;;;18.75;12.73;;;;;;;17.25;71.47;101017.22;3547619;78;21003;-75
2022/10/16 16:36:46;;;;;;;15.70;10.72;;;;;;;17.20;71.52;101022.94;3505211;78;39378;-76
2022/10/16 16:41:44;;;;;;;13.90;11.38;;;;;;;17.16;71.79;101019.45;3546981;77;20994;-76
2022/10/16 16:46:54;;;;;;;18.07;11.97;;;;;;;17.12;71.95;101025.17;3548624;78;21048;-77
2022/10/16 16:51:52;;;;;;;16.73;12.82;;;;;;;17.10;71.98;101024.75;3529757;77;21019;-77
2022/10/16 16:57:00;;;;;;;16.57;12.75;;;;;;;17.09;72.23;101030.42;3533750;78;20947;-77
2022/10/16 17:02:22;;;;;;;16.05;12.07;;;;;;;17.06;72.32;101047.95;3524132;79;20995;-75
2022/10/16 17:07:13;;;;;;;13.28;11.83;;;;;;;17.04;72.64;101050.59;3523660;79;21417;-76
2022/10/16 17:17:45;;;;;;;20.88;12.47;;;;;;;16.92;73.15;101054.61;3442200;80;20995;-76
2022/10/16 17:23:07;;;;;;;16.20;12.40;;;;;;;16.80;73.27;101067.30;3291737;83;21298;-76
2022/10/16 17:28:17;;;;;;;17.32;12.65;;;;;;;16.68;73.37;101070.81;3380971;82;21329;-76
2022/10/16 17:34:09;;;;;;;19.05;13.08;;;;;;;16.58;73.62;101074.36;3389361;81;20984;-75
2022/10/16 17:39:08;;;;;;;14.07;11.75;;;;;;;16.46;73.82;101087.50;3236030;85;21625;-76
2022/10/16 17:44:19;;;;;;;;;;;;;;;;;;;;;
2022/10/16 17:54:43;;;;;;;;;;;;;;;;;;;;;
2022/10/16 17:59:50;;;;;;;21.50;14.58;;;;;;;15.96;74.59;101112.42;3071589;90;21166;-75
2022/10/16 18:05:12;;;;;;;;;;;;;;;;;;;;;
2022/10/16 18:10:12;;;;;;;15.90;13.48;;;;;;;15.78;75.08;101116.34;3044117;89;21582;-76
2022/10/16 18:15:11;;;;;;;18.70;14.63;;;;;;;15.73;75.20;101126.77;3109611;89;21650;-77
2022/10/16 18:20:25;;;;;;;26.10;15.50;;;;;;;15.73;75.46;101131.14;3145211;87;21053;-77
2022/10/16 18:35:54;;;;;;;18.98;14.38;;;;;;;15.72;75.93;101143.80;3214173;86;21076;-76
2022/10/16 18:40:54;;;;;;;20.15;15.70;;;;;;;15.70;75.99;101142.92;3197057;86;21081;-77
2022/10/16 18:46:19;;;;;;;22.25;17.05;;;;;;;15.67;76.14;101145.53;3354886;81;21014;-76
2022/10/16 18:51:57;;;;;;;;;;;;;;;;;;;;;
2022/10/16 18:57:04;;;;;;;22.15;16.70;;;;;;;15.62;76.48;101152.95;3306141;83;20987;-77
2022/10/16 19:02:05;;;;;;;20.37;14.68;;;;;;;15.60;76.61;101156.45;3469965;79;21490;-76
2022/10/16 19:07:15;;;;;;;20.52;16.48;;;;;;;15.61;76.71;101161.70;3499506;79;21599;-75
2022/10/16 19:12:20;;;;;;;19.45;15.43;;;;;;;15.58;76.78;101160.81;3491638;79;20904;-75
2022/10/16 19:17:38;;;;;;;20.88;16.35;;;;;;;15.54;76.82;101161.24;3427368;81;21038;-76
2022/10/16 19:23:03;;;;;;;17.70;14.87;;;;;;;15.47;76.87;101166.43;3350845;83;21066;-75
2022/10/16 19:28:16;;;;;;;20.92;14.95;;;;;;;15.35;77.03;101175.14;3197443;87;21502;-75
2022/10/16 19:33:46;;;;;;;22.05;15.68;;;;;;;15.18;77.16;101183.76;3187896;87;21064;-75
2022/10/16 19:39:22;;;;;;;18.17;15.83;;;;;;;15.04;76.86;101194.17;3218201;85;22392;-78
2022/10/16 19:44:28;;;;;;;20.68;18.10;;;;;;;14.92;77.18;101201.08;3037580;90;21536;-75
2022/10/16 19:49:31;;;;;;;22.13;16.17;;;;;;;14.80;77.44;101209.71;3023506;93;21076;-76
2022/10/16 19:54:52;;;;;;;22.00;16.30;;;;;;;14.70;77.70;101216.59;3051262;91;21115;-76
2022/10/16 19:59:49;;;;;;;17.25;15.48;;;;;;;14.60;77.82;101220.03;3188608;87;21182;-75
2022/10/16 20:05:08;;;;;;;;;;;;;;;;;;;;;
2022/10/16 20:09:59;;;;;;;20.77;16.27;;;;;;;14.35;77.58;101221.08;3291631;82;21037;-76
2022/10/16 20:20:56;;;;;;;16.77;14.90;;;;;;;14.16;77.97;101237.44;3486987;77;20950;-75
2022/10/16 20:31:36;;;;;;;21.23;15.75;;;;;;;13.95;78.07;101250.74;3341956;81;22151;-74
2022/10/16 20:36:46;;;;;;;18.45;15.48;;;;;;;13.85;78.26;101261.94;3348512;83;21090;-75
2022/10/16 20:41:50;;;;;;;18.85;14.95;;;;;;;13.73;78.38;101260.04;3341692;83;21216;-75
2022/10/16 20:47:12;;;;;;;;;;;;;;;;;;;;;
2022/10/16 20:52:02;;;;;;;23.42;16.40;;;;;;;13.52;78.36;101281.53;3342831;83;21031;-75
2022/10/16 20:57:30;;;;;;;;;;;;;;;;;;;;;
2022/10/16 21:02:17;;;;;;;;;;;;;;;;;;;;;
2022/10/16 21:17:42;;;;;;;18.63;16.20;;;;;;;13.22;78.68;101308.94;3194220;86;21061;-77
2022/10/16 21:22:50;;;;;;;;;;;;;;;;;;;;;
2022/10/16 21:27:52;;;;;;;16.35;14.15;;;;;;;13.04;78.87;101299.08;3206186;86;22384;-76
2022/10/16 21:32:57;;;;;;;17.75;14.65;;;;;;;12.97;78.79;101303.75;3107356;90;21111;-77
2022/10/16 21:38:10;;;;;;;;;;;;;;;;;;;;;
2022/10/16 21:43:03;;;;;;;15.68;14.07;;;;;;;12.85;79.29;101317.46;3097472;89;21610;-77
2022/10/16 21:48:19;;;;;;;18.20;14.28;;;;;;;12.80;79.17;101327.38;3090623;88;21085;-76
2022/10/16 21:53:37;;;;;;;17.27;14.63;;;;;;;12.77;79.40;101321.69;3108997;89;21613;-76
2022/10/16 21:58:41;;;;;;;16.23;14.50;;;;;;;12.71;79.48;101324.17;3092944;82;21052;-77
2022/10/16 22:03:59;;;;;;;16.10;14.47;;;;;;;12.67;79.46;101327.58;3353229;83;21058;-76
2022/10/16 22:09:03;;;;;;;23.75;15.30;;;;;;;12.62;79.77;101325.31;3305309;84;21143;-76
2022/10/16 22:14:25;;;;;;;16.57;14.73;;;;;;;12.56;79.80;101328.26;3313790;84;21934;-76
2022/10/16 22:19:35;;;;;;;15.65;14.03;;;;;;;12.51;79.98;101337.72;3285075;85;21049;-76
2022/10/16 22:24:45;;;;;;;17.32;15.43;;;;;;;12.44;79.72;101348.89;3251726;85;21031;-77
2022/10/16 22:29:49;;;;;;;18.65;14.38;;;;;;;12.39;79.86;101363.56;3362747;82;20977;-76
2022/10/16 22:35:16;;;;;;;17.80;14.03;;;;;;;12.35;80.16;101357.84;3308488;82;21707;-77
2022/10/16 22:40:13;;;;;;;;;;;;;;;12.31;80.11;101360.81;3426544;81;21059;-75
2022/10/16 22:45:28;;;;;;;14.43;12.37;;;;;;;12.24;80.23;101352.84;3386062;82;20601;-75
2022/10/16 22:50:50;;;;;;;14.83;13.00;;;;;;;12.17;80.02;101364.43;3399535;81;21527;-75
2022/10/16 22:56:03;;;;;;;16.75;14.15;;;;;;;12.11;80.00;101372.14;3323140;84;21104;-75
2022/10/16 23:07:03;;;;;;;14.53;13.03;;;;;;;12.00;80.15;101381.43;3050267;90;21944;-75
2022/10/16 23:12:20;;;;;;;19.65;14.87;;;;;;;11.94;80.54;101378.27;3039386;90;21631;-74
2022/10/16 23:17:57;;;;;;;14.87;13.38;;;;;;;11.91;80.35;101378.23;3057169;91;21110;-75
2022/10/16 23:23:43;;;;;;;;;;;;;;;;;;;;;
2022/10/16 23:29:06;;;;;;;15.75;14.05;;;;;;;11.77;80.08;101384.39;2880187;96;21075;-75
2022/10/16 23:40:19;;;;;;;15.43;12.68;;;;;;;11.66;80.38;101393.70;2825380;98;21718;-75
2022/10/16 23:51:22;;;;;;;17.65;13.32;;;;;;;11.52;80.49;101407.69;2974239;92;21106;-75
